Time;durP1;ratioP1;P1;durP2;ratioP2;P2;SDS_P1;SDS_P2;PMS_P1;PMS_P2;Temp;Humidity;BMP_temperature;BMP_pressure;BME280_temperature;BME280_humidity;BME280_pressure;Samples;Min_cycle;Max_cycle;Signal;HPM_P1;HPM_P2
2023/06/15 00:00:46;;;;;;;2.33;1.20;;;18.90;66.70;;;;;;4818187;29;20045;-67
2023/06/15 00:03:13;;;;;;;5.35;1.40;;;18.80;66.90;;;;;;4816048;29;20135;-67
2023/06/15 00:05:39;;;;;;;2.47;1.10;;;18.80;67.40;;;;;;4820352;29;20439;-67
2023/06/15 00:08:06;;;;;;;5.32;1.10;;;18.80;67.70;;;;;;4844880;29;20044;-67
2023/06/15 00:10:32;;;;;;;3.38;1.10;;;18.70;67.80;;;;;;4829210;29;20465;-67
2023/06/15 00:12:58;;;;;;;1.67;0.90;;;18.70;68.10;;;;;;4835902;29;20059;-67
2023/06/15 00:15:27;;;;;;;3.53;1.38;;;18.60;68.40;;;;;;4832179;29;20127;-67
2023/06/15 00:17:54;;;;;;;5.72;1.90;;;18.50;69.00;;;;;;4834614;29;20371;-67
2023/06/15 00:20:22;;;;;;;2.25;1.48;;;18.50;69.60;;;;;;4835943;29;20075;-67
2023/06/15 00:22:49;;;;;;;2.83;1.42;;;18.40;70.00;;;;;;4835245;29;20075;-67
2023/06/15 00:25:15;;;;;;;2.95;1.52;;;18.40;70.30;;;;;;4841928;29;20036;-67
2023/06/15 00:27:43;;;;;;;3.13;1.60;;;18.40;71.00;;;;;;4845666;29;20048;-67
2023/06/15 00:30:10;;;;;;;2.55;0.90;;;18.30;71.00;;;;;;4853552;29;20033;-67
2023/06/15 00:32:37;;;;;;;2.53;1.60;;;18.30;71.20;;;;;;4835853;29;20040;-67
2023/06/15 00:35:04;;;;;;;2.60;1.45;;;18.20;71.40;;;;;;4832454;29;20048;-67
2023/06/15 00:37:31;;;;;;;6.90;2.10;;;18.20;71.70;;;;;;4834947;29;20041;-67
2023/06/15 00:39:57;;;;;;;3.83;1.40;;;18.20;72.80;;;;;;4804685;29;20044;-67
2023/06/15 00:42:24;;;;;;;3.63;1.73;;;18.10;72.80;;;;;;4841743;29;20839;-67
2023/06/15 00:44:50;;;;;;;1.88;1.20;;;18.10;73.10;;;;;;4825414;29;20063;-67
2023/06/15 00:47:18;;;;;;;6.65;1.80;;;18.10;73.20;;;;;;4840978;29;20048;-68
2023/06/15 00:49:45;;;;;;;2.80;1.48;;;18.10;73.30;;;;;;4835220;29;20033;-67
2023/06/15 00:52:14;;;;;;;2.80;1.45;;;18.10;73.60;;;;;;4834116;29;20385;-67
2023/06/15 00:54:43;;;;;;;2.15;1.20;;;18.10;73.80;;;;;;4816371;29;20064;-67
2023/06/15 00:57:14;;;;;;;4.88;1.60;;;18.00;73.90;;;;;;4820566;29;20040;-67
2023/06/15 00:59:42;;;;;;;5.13;1.35;;;18.00;74.30;;;;;;4835483;29;20439;-67
2023/06/15 01:02:12;;;;;;;2.65;1.42;;;18.00;74.80;;;;;;4840358;29;20489;-67
2023/06/15 01:04:39;;;;;;;3.78;1.48;;;17.90;74.90;;;;;;4839914;29;20037;-67
2023/06/15 01:07:10;;;;;;;3.72;1.63;;;17.90;74.90;;;;;;4837896;29;20041;-67
2023/06/15 01:09:40;;;;;;;4.18;1.75;;;17.90;75.10;;;;;;4833949;29;22858;-67
2023/06/15 01:12:14;;;;;;;4.07;1.50;;;17.90;75.30;;;;;;4819088;29;20037;-67
2023/06/15 01:14:40;;;;;;;3.15;2.25;;;17.90;75.30;;;;;;4830908;29;20045;-67
2023/06/15 01:17:13;;;;;;;3.22;1.58;;;17.90;75.60;;;;;;4835013;29;20040;-68
2023/06/15 01:20:05;;;;;;;6.15;1.38;;;17.90;75.90;;;;;;4839272;29;20056;-67
2023/06/15 01:22:49;;;;;;;2.85;1.73;;;17.80;76.00;;;;;;4845360;29;20041;-67
2023/06/15 01:25:26;;;;;;;3.63;1.63;;;17.80;76.30;;;;;;4835986;29;20060;-67
2023/06/15 01:28:01;;;;;;;6.00;1.98;;;17.80;76.40;;;;;;4835431;29;20363;-67
2023/06/15 01:30:30;;;;;;;7.53;2.38;;;17.80;76.70;;;;;;4833032;29;20396;-68
2023/06/15 01:32:57;;;;;;;3.83;1.80;;;17.80;77.10;;;;;;4832601;29;20576;-67
2023/06/15 01:35:23;;;;;;;4.15;2.00;;;17.70;77.20;;;;;;4832868;29;20048;-67
2023/06/15 01:37:49;;;;;;;5.15;2.10;;;17.70;77.70;;;;;;4823316;29;20063;-67
2023/06/15 01:40:17;;;;;;;5.85;2.78;;;17.70;77.50;;;;;;4843503;29;20055;-67
2023/06/15 01:42:44;;;;;;;4.72;2.50;;;17.70;77.90;;;;;;4841985;29;20037;-67
2023/06/15 01:45:13;;;;;;;2.65;1.70;;;17.60;77.90;;;;;;4830148;29;20440;-67
2023/06/15 01:47:40;;;;;;;3.25;1.58;;;17.60;78.00;;;;;;4831683;29;21505;-67
2023/06/15 01:50:08;;;;;;;6.88;2.00;;;17.60;78.00;;;;;;4820267;29;20037;-67
2023/06/15 01:52:34;;;;;;;3.70;2.17;;;17.60;78.40;;;;;;4832516;29;20047;-67
2023/06/15 01:55:01;;;;;;;4.55;2.00;;;17.50;78.40;;;;;;4814357;29;20630;-68
2023/06/15 01:57:27;;;;;;;3.53;2.22;;;17.50;78.80;;;;;;4826727;29;20048;-67
2023/06/15 01:59:54;;;;;;;4.80;1.85;;;17.40;78.80;;;;;;4857731;29;20500;-67
2023/06/15 02:02:21;;;;;;;5.20;1.20;;;17.40;79.20;;;;;;4858838;29;20045;-67
2023/06/15 02:04:49;;;;;;;6.45;2.53;;;17.40;79.00;;;;;;4835093;29;20040;-67
2023/06/15 02:07:15;;;;;;;3.08;1.83;;;17.40;79.30;;;;;;4838554;29;20033;-67
2023/06/15 02:09:43;;;;;;;3.95;2.22;;;17.40;79.50;;;;;;4836538;29;20578;-67
2023/06/15 02:12:10;;;;;;;6.57;2.97;;;17.30;79.60;;;;;;4837549;29;20043;-67
2023/06/15 02:14:36;;;;;;;4.18;1.80;;;17.30;79.80;;;;;;4832127;29;20044;-67
2023/06/15 02:17:03;;;;;;;3.47;1.70;;;17.30;79.90;;;;;;4846683;29;20037;-67
2023/06/15 02:19:30;;;;;;;4.45;1.90;;;17.30;79.80;;;;;;4846296;29;20032;-67
2023/06/15 02:21:56;;;;;;;2.97;2.05;;;17.20;80.20;;;;;;4841064;29;20040;-66
2023/06/15 02:24:24;;;;;;;2.60;1.42;;;17.20;80.20;;;;;;4832804;29;20030;-67
2023/06/15 02:26:50;;;;;;;5.25;1.70;;;17.20;80.20;;;;;;4837305;29;20044;-67
2023/06/15 02:29:16;;;;;;;3.25;2.03;;;17.20;80.30;;;;;;4834983;29;20037;-67
2023/06/15 02:31:42;;;;;;;2.67;1.40;;;17.20;81.20;;;;;;4837450;29;20282;-67
2023/06/15 02:34:09;;;;;;;5.90;1.90;;;17.20;80.60;;;;;;4818666;29;20038;-67
2023/06/15 02:36:37;;;;;;;6.75;1.58;;;17.10;80.90;;;;;;4830921;29;20496;-67
2023/06/15 02:39:04;;;;;;;3.30;1.80;;;17.10;81.00;;;;;;4830517;29;20233;-67
2023/06/15 02:41:30;;;;;;;4.25;1.85;;;17.10;80.90;;;;;;4843766;29;20044;-67
2023/06/15 02:43:56;;;;;;;2.50;1.70;;;17.10;81.10;;;;;;4818472;29;20044;-67
2023/06/15 02:46:23;;;;;;;5.35;2.53;;;17.10;81.10;;;;;;4836813;29;20049;-68
2023/06/15 02:48:51;;;;;;;6.35;1.63;;;17.10;81.20;;;;;;4837460;29;20032;-67
2023/06/15 02:51:20;;;;;;;5.70;1.75;;;17.00;81.40;;;;;;4837591;29;21979;-67
2023/06/15 02:53:49;;;;;;;3.03;2.05;;;17.00;81.50;;;;;;4836593;29;20037;-67
2023/06/15 02:56:20;;;;;;;3.58;1.35;;;17.00;81.70;;;;;;4831590;29;20037;-67
2023/06/15 02:58:53;;;;;;;3.58;2.17;;;16.90;81.80;;;;;;4846718;29;20810;-67
2023/06/15 03:01:36;;;;;;;2.67;1.60;;;16.90;82.10;;;;;;4838097;29;20361;-67
2023/06/15 03:04:09;;;;;;;3.28;1.77;;;16.90;82.10;;;;;;4815476;29;20661;-67
2023/06/15 03:06:37;;;;;;;4.35;1.60;;;16.90;82.10;;;;;;4838483;29;20452;-67
2023/06/15 03:09:07;;;;;;;2.75;1.73;;;16.80;82.20;;;;;;4837129;29;20048;-67
2023/06/15 03:11:33;;;;;;;2.88;1.48;;;16.80;82.30;;;;;;4838331;29;20685;-67
2023/06/15 03:14:01;;;;;;;4.47;1.58;;;16.80;82.40;;;;;;4826641;29;20052;-67
2023/06/15 03:16:39;;;;;;;2.85;1.40;;;16.80;82.40;;;;;;4815832;29;20037;-68
2023/06/15 03:19:06;;;;;;;4.80;2.20;;;16.80;82.50;;;;;;4821240;29;20037;-67
2023/06/15 03:21:33;;;;;;;4.10;1.70;;;16.80;82.60;;;;;;4820336;29;20045;-67
2023/06/15 03:24:02;;;;;;;2.97;2.10;;;16.80;82.70;;;;;;4815337;29;20055;-67
2023/06/15 03:26:28;;;;;;;2.88;1.33;;;16.70;82.90;;;;;;4836854;29;20524;-67
2023/06/15 03:28:57;;;;;;;3.03;1.50;;;16.70;82.90;;;;;;4806528;29;20615;-67
2023/06/15 03:31:23;;;;;;;3.35;1.48;;;16.70;82.80;;;;;;4843224;29;20033;-67
2023/06/15 03:33:50;;;;;;;4.30;1.90;;;16.70;82.90;;;;;;4838771;29;20037;-67
2023/06/15 03:36:18;;;;;;;2.13;1.20;;;16.70;83.10;;;;;;4827296;29;20045;-67
2023/06/15 03:38:45;;;;;;;2.50;1.40;;;16.70;83.10;;;;;;4835070;29;20042;-68
2023/06/15 03:41:12;;;;;;;3.00;1.70;;;16.70;83.20;;;;;;4823645;29;20048;-68
2023/06/15 03:43:39;;;;;;;2.40;1.58;;;16.70;83.20;;;;;;4829820;29;20555;-68
2023/06/15 03:46:06;;;;;;;3.00;1.25;;;16.70;83.30;;;;;;4833491;29;20048;-68
2023/06/15 03:48:32;;;;;;;2.72;1.77;;;16.70;83.40;;;;;;4839372;29;20036;-68
2023/06/15 03:50:59;;;;;;;5.82;1.80;;;16.70;83.50;;;;;;4845390;29;20037;-68
2023/06/15 03:53:26;;;;;;;3.05;1.52;;;16.70;83.70;;;;;;4825279;29;20067;-68
2023/06/15 03:55:52;;;;;;;6.22;1.83;;;16.70;83.80;;;;;;4816561;29;20048;-68
2023/06/15 03:58:19;;;;;;;3.80;1.42;;;16.70;83.80;;;;;;4835817;29;20507;-68
2023/06/15 04:00:48;;;;;;;3.42;1.77;;;16.70;83.70;;;;;;4821557;29;20124;-68
2023/06/15 04:03:17;;;;;;;2.90;1.60;;;16.80;83.70;;;;;;4833582;29;20418;-68
2023/06/15 04:05:43;;;;;;;4.03;2.10;;;16.70;83.60;;;;;;4813887;29;20049;-69
2023/06/15 04:08:09;;;;;;;4.07;2.03;;;16.80;83.70;;;;;;4814385;29;20040;-68
2023/06/15 04:10:36;;;;;;;4.45;1.95;;;16.80;83.80;;;;;;4828894;29;20064;-69
2023/06/15 04:13:03;;;;;;;2.78;1.40;;;16.90;83.70;;;;;;4837096;29;20044;-66
2023/06/15 04:15:30;;;;;;;2.33;1.50;;;16.90;83.70;;;;;;4829426;29;20043;-67
2023/06/15 04:18:00;;;;;;;3.10;1.50;;;16.90;83.70;;;;;;4835247;29;20046;-66
2023/06/15 04:20:31;;;;;;;2.00;1.30;;;17.00;83.80;;;;;;4836939;29;20037;-67
2023/06/15 04:22:59;;;;;;;3.63;1.55;;;17.00;83.80;;;;;;4851099;29;20044;-66
2023/06/15 04:25:27;;;;;;;2.50;1.30;;;17.10;83.80;;;;;;4816084;29;20052;-67
2023/06/15 04:27:53;;;;;;;2.20;1.60;;;17.10;83.70;;;;;;4846051;29;20041;-68
2023/06/15 04:30:24;;;;;;;2.10;1.50;;;17.20;83.60;;;;;;4810695;29;20033;-67
2023/06/15 04:32:59;;;;;;;3.08;1.30;;;17.20;83.60;;;;;;4819696;29;20045;-67
2023/06/15 04:35:31;;;;;;;3.95;1.60;;;17.30;83.50;;;;;;4828217;29;20049;-67
2023/06/15 04:37:58;;;;;;;2.92;1.23;;;17.40;83.40;;;;;;4835921;29;20041;-67
2023/06/15 04:40:25;;;;;;;3.05;1.60;;;17.50;83.20;;;;;;4851606;29;20059;-67
2023/06/15 04:42:58;;;;;;;2.53;1.65;;;17.60;83.20;;;;;;4839197;29;20052;-67
2023/06/15 04:45:26;;;;;;;3.10;1.70;;;17.70;82.80;;;;;;4836938;29;20376;-67
2023/06/15 04:47:52;;;;;;;2.67;1.40;;;17.80;82.70;;;;;;4844046;29;20044;-66
2023/06/15 04:50:18;;;;;;;2.47;1.60;;;17.80;82.70;;;;;;4838550;29;20029;-67
2023/06/15 04:52:45;;;;;;;2.75;1.90;;;17.90;82.60;;;;;;4818784;29;20040;-67
2023/06/15 04:55:11;;;;;;;4.55;3.50;;;18.00;82.50;;;;;;4822860;29;20040;-67
2023/06/15 04:57:38;;;;;;;7.53;4.80;;;18.10;82.40;;;;;;4819236;29;20063;-67
2023/06/15 05:00:10;;;;;;;9.10;6.15;;;18.20;82.20;;;;;;4817939;29;20048;-67
2023/06/15 05:02:43;;;;;;;5.28;4.60;;;18.30;82.10;;;;;;4829973;29;20075;-67
2023/06/15 05:05:11;;;;;;;5.93;3.03;;;18.50;82.00;;;;;;4816972;29;20045;-68
2023/06/15 05:07:37;;;;;;;5.13;2.50;;;18.60;81.80;;;;;;4807103;29;20198;-72
2023/06/15 05:10:04;;;;;;;5.03;3.10;;;18.70;81.50;;;;;;4827771;29;20404;-71
2023/06/15 05:12:32;;;;;;;6.30;4.50;;;18.80;81.20;;;;;;4816289;29;20400;-71
2023/06/15 05:14:58;;;;;;;3.75;2.80;;;18.90;80.90;;;;;;4824819;29;20037;-68
2023/06/15 05:17:26;;;;;;;3.65;2.60;;;19.00;80.60;;;;;;4814337;29;20045;-68
2023/06/15 05:19:52;;;;;;;5.00;2.55;;;19.20;80.40;;;;;;4833080;29;20048;-69
2023/06/15 05:22:19;;;;;;;7.22;2.42;;;19.30;80.20;;;;;;4825603;29;20065;-69
2023/06/15 05:24:45;;;;;;;5.03;3.00;;;19.40;80.00;;;;;;4834397;29;20044;-69
2023/06/15 05:27:12;;;;;;;11.75;7.18;;;19.50;79.60;;;;;;4820965;29;20045;-69
2023/06/15 05:29:46;;;;;;;5.95;4.35;;;19.60;79.30;;;;;;4831593;29;20400;-68
2023/06/15 05:32:13;;;;;;;5.80;3.35;;;19.80;79.00;;;;;;4819264;29;20036;-68
2023/06/15 05:34:39;;;;;;;3.35;2.20;;;19.90;78.50;;;;;;4826713;29;20041;-68
2023/06/15 05:37:06;;;;;;;2.67;2.13;;;20.10;78.20;;;;;;4821311;29;20045;-68
2023/06/15 05:39:36;;;;;;;3.65;2.47;;;20.20;77.80;;;;;;4840467;29;20045;-68
2023/06/15 05:42:03;;;;;;;2.63;1.90;;;20.30;77.20;;;;;;4829967;29;20037;-68
2023/06/15 05:44:29;;;;;;;2.53;1.70;;;20.40;76.90;;;;;;4821904;29;20040;-68
2023/06/15 05:46:58;;;;;;;4.25;1.30;;;20.50;76.80;;;;;;4838287;29;20044;-68
2023/06/15 05:49:24;;;;;;;3.85;1.90;;;20.60;76.60;;;;;;4836599;29;20037;-68
2023/06/15 05:51:50;;;;;;;2.33;1.85;;;20.80;76.30;;;;;;4821580;29;20049;-69
2023/06/15 05:54:18;;;;;;;6.07;1.92;;;20.90;76.00;;;;;;4818195;29;20071;-69
2023/06/15 05:56:44;;;;;;;6.60;2.15;;;21.00;75.50;;;;;;4839237;29;20033;-68
2023/06/15 05:59:11;;;;;;;3.20;1.80;;;21.10;75.00;;;;;;4831058;29;20061;-68
2023/06/15 06:01:37;;;;;;;3.15;1.65;;;21.40;74.60;;;;;;4848313;29;20407;-68
2023/06/15 06:04:04;;;;;;;6.35;2.88;;;21.70;74.20;;;;;;4820395;29;20423;-69
2023/06/15 06:06:30;;;;;;;5.75;2.40;;;21.90;73.00;;;;;;4811172;29;20045;-72
2023/06/15 06:08:56;;;;;;;2.63;1.70;;;22.00;72.20;;;;;;4809637;29;20048;-68
2023/06/15 06:11:22;;;;;;;5.00;2.20;;;22.10;72.10;;;;;;4836391;29;20041;-69
2023/06/15 06:13:52;;;;;;;4.63;1.90;;;22.20;71.90;;;;;;4810779;29;20044;-68
2023/06/15 06:16:20;;;;;;;5.57;3.88;;;22.40;71.80;;;;;;4832470;29;20037;-68
2023/06/15 06:18:46;;;;;;;5.70;4.05;;;22.60;71.50;;;;;;4809017;29;20705;-69
2023/06/15 06:21:12;;;;;;;4.18;2.80;;;22.80;71.10;;;;;;4834905;29;20065;-69
2023/06/15 06:23:40;;;;;;;4.53;3.53;;;23.00;70.60;;;;;;4815424;29;20048;-68
2023/06/15 06:26:07;;;;;;;2.95;2.30;;;23.30;70.00;;;;;;4829578;29;20052;-68
2023/06/15 06:28:35;;;;;;;3.63;2.75;;;23.50;69.10;;;;;;4804319;29;20045;-68
2023/06/15 06:31:01;;;;;;;5.20;2.40;;;23.50;68.00;;;;;;4816379;29;20040;-69
2023/06/15 06:33:27;;;;;;;4.22;1.70;;;23.60;68.20;;;;;;4831040;29;21067;-69
2023/06/15 06:35:53;;;;;;;4.40;1.90;;;23.70;68.10;;;;;;4835248;29;20052;-69
2023/06/15 06:38:20;;;;;;;2.38;1.30;;;23.80;68.00;;;;;;4848574;29;20040;-69
2023/06/15 06:40:46;;;;;;;3.78;1.50;;;23.80;67.90;;;;;;4826277;29;20052;-68
2023/06/15 06:43:13;;;;;;;3.47;1.90;;;23.90;67.90;;;;;;4830401;29;20917;-68
2023/06/15 06:45:40;;;;;;;6.18;2.85;;;24.00;67.50;;;;;;4830289;29;20037;-68
2023/06/15 06:48:06;;;;;;;5.22;2.17;;;24.00;67.00;;;;;;4821831;29;20391;-69
2023/06/15 06:50:33;;;;;;;2.50;1.50;;;24.00;66.70;;;;;;4835290;29;20357;-68
2023/06/15 06:53:00;;;;;;;3.83;1.58;;;24.00;66.80;;;;;;4839784;29;20041;-69
2023/06/15 06:55:26;;;;;;;3.08;1.35;;;24.10;66.80;;;;;;4838983;29;20068;-68
2023/06/15 06:57:52;;;;;;;6.30;2.90;;;24.20;66.70;;;;;;4844572;29;20048;-69
2023/06/15 07:00:19;;;;;;;3.85;1.77;;;24.20;66.20;;;;;;4836721;29;20037;-68
2023/06/15 07:02:45;;;;;;;3.92;2.00;;;24.30;66.20;;;;;;4837014;29;20488;-68
2023/06/15 07:05:11;;;;;;;3.83;1.65;;;24.30;66.10;;;;;;4811993;29;20049;-68
2023/06/15 07:07:37;;;;;;;7.72;1.80;;;24.50;66.10;;;;;;4837548;29;20488;-69
2023/06/15 07:10:05;;;;;;;2.00;1.38;;;24.60;65.90;;;;;;4834521;29;20049;-68
2023/06/15 07:12:31;;;;;;;3.20;1.50;;;24.70;65.70;;;;;;4828620;29;20037;-68
2023/06/15 07:14:57;;;;;;;2.30;1.40;;;24.70;65.50;;;;;;4840226;29;20041;-67
2023/06/15 07:17:24;;;;;;;4.22;1.45;;;24.80;65.30;;;;;;4841547;29;20052;-67
2023/06/15 07:19:50;;;;;;;5.07;1.52;;;24.90;65.00;;;;;;4836259;29;20041;-69
2023/06/15 07:22:17;;;;;;;3.33;1.55;;;25.00;64.60;;;;;;4839129;29;20068;-69
2023/06/15 07:24:44;;;;;;;3.67;1.67;;;25.10;64.60;;;;;;4813422;29;20044;-68
2023/06/15 07:27:10;;;;;;;4.13;1.40;;;25.30;64.40;;;;;;4834790;29;20497;-68
2023/06/15 07:29:36;;;;;;;5.28;1.70;;;25.50;64.10;;;;;;4841350;29;20472;-68
2023/06/15 07:32:03;;;;;;;3.85;1.50;;;25.60;63.60;;;;;;4848421;29;20551;-69
2023/06/15 07:34:29;;;;;;;2.38;1.30;;;25.70;63.30;;;;;;4836493;29;20052;-68
2023/06/15 07:36:55;;;;;;;2.90;1.80;;;25.80;63.20;;;;;;4836479;29;21154;-69
2023/06/15 07:39:22;;;;;;;2.53;1.38;;;25.80;63.10;;;;;;4836264;29;20045;-69
2023/06/15 07:41:48;;;;;;;4.70;1.77;;;25.90;62.80;;;;;;4835644;29;20025;-68
2023/06/15 07:44:14;;;;;;;2.20;1.30;;;26.10;62.20;;;;;;4830236;29;20045;-68
2023/06/15 07:46:41;;;;;;;2.35;1.25;;;26.30;62.30;;;;;;4839033;29;20045;-68
2023/06/15 07:49:07;;;;;;;5.05;1.92;;;26.40;62.10;;;;;;4840643;29;20036;-68
2023/06/15 07:51:37;;;;;;;3.30;1.08;;;26.50;60.50;;;;;;4848227;29;20036;-69
2023/06/15 07:54:03;;;;;;;4.28;1.70;;;26.50;60.50;;;;;;4817751;29;20065;-69
2023/06/15 07:56:29;;;;;;;3.45;1.20;;;26.60;60.10;;;;;;4838947;29;20404;-68
2023/06/15 07:58:56;;;;;;;3.50;1.70;;;26.60;60.20;;;;;;4837598;29;20079;-68
2023/06/15 08:01:22;;;;;;;4.07;1.42;;;26.70;60.40;;;;;;4820562;29;20056;-69
2023/06/15 08:03:49;;;;;;;4.30;1.75;;;26.80;60.20;;;;;;4830708;29;20045;-68
2023/06/15 08:06:15;;;;;;;3.47;1.20;;;26.90;60.10;;;;;;4852108;29;20503;-68
2023/06/15 08:08:42;;;;;;;3.20;1.13;;;27.10;60.00;;;;;;4846466;29;20040;-68
2023/06/15 08:11:09;;;;;;;4.43;1.67;;;27.30;59.90;;;;;;4844949;29;20042;-68
2023/06/15 08:13:37;;;;;;;3.03;1.23;;;27.40;59.50;;;;;;4835093;29;20049;-68
2023/06/15 08:16:05;;;;;;;1.88;1.08;;;27.50;59.20;;;;;;4832831;29;20036;-68
2023/06/15 08:18:32;;;;;;;2.53;1.10;;;27.60;58.40;;;;;;4836644;29;20052;-68
2023/06/15 08:21:00;;;;;;;2.83;1.45;;;27.70;57.90;;;;;;4837155;29;20044;-68
2023/06/15 08:23:26;;;;;;;3.50;1.30;;;27.60;56.50;;;;;;4834869;29;20505;-68
2023/06/15 08:25:53;;;;;;;6.32;1.80;;;27.50;55.60;;;;;;4834890;29;20481;-68
2023/06/15 08:28:20;;;;;;;7.38;1.92;;;27.50;54.90;;;;;;4847185;29;20613;-69
2023/06/15 08:30:46;;;;;;;3.25;1.00;;;27.50;55.00;;;;;;4843796;29;20068;-68
2023/06/15 08:33:12;;;;;;;3.80;1.48;;;27.50;54.90;;;;;;4837443;29;20056;-68
2023/06/15 08:35:39;;;;;;;3.33;1.05;;;27.60;55.10;;;;;;4831080;29;20378;-68
2023/06/15 08:38:06;;;;;;;2.70;1.27;;;27.60;54.90;;;;;;4835904;29;20033;-68
2023/06/15 08:40:32;;;;;;;4.72;1.52;;;27.70;55.00;;;;;;4821074;29;20507;-68
2023/06/15 08:42:59;;;;;;;4.90;1.38;;;27.90;53.80;;;;;;4837902;29;20037;-68
2023/06/15 08:45:42;;;;;;;2.30;1.20;;;27.90;54.20;;;;;;4817590;29;20056;-68
2023/06/15 08:48:11;;;;;;;3.03;1.73;;;27.90;54.80;;;;;;4844220;29;20570;-68
2023/06/15 08:50:39;;;;;;;5.30;1.30;;;28.00;54.60;;;;;;4840056;29;20649;-68
2023/06/15 08:53:06;;;;;;;4.03;1.70;;;28.10;54.90;;;;;;4837980;29;20432;-68
2023/06/15 08:55:33;;;;;;;2.88;1.08;;;28.20;54.50;;;;;;4813134;29;20053;-69
2023/06/15 08:58:00;;;;;;;3.53;1.48;;;28.20;54.40;;;;;;4835052;29;20437;-68
2023/06/15 09:00:26;;;;;;;5.05;1.25;;;28.30;53.60;;;;;;4819408;29;20043;-68
2023/06/15 09:02:57;;;;;;;2.17;1.27;;;28.20;53.60;;;;;;4809933;29;20045;-68
2023/06/15 09:05:25;;;;;;;2.40;1.53;;;28.30;54.00;;;;;;4822969;29;20390;-68
2023/06/15 09:07:52;;;;;;;3.65;1.42;;;28.40;53.00;;;;;;4844214;29;20044;-68
2023/06/15 09:10:19;;;;;;;5.32;1.35;;;28.40;52.80;;;;;;4819951;29;20068;-68
2023/06/15 09:12:54;;;;;;;3.20;1.25;;;28.20;52.50;;;;;;4836294;29;20052;-68
2023/06/15 09:15:23;;;;;;;3.55;1.40;;;28.20;52.90;;;;;;4831816;29;20052;-68
2023/06/15 09:17:56;;;;;;;4.75;1.20;;;28.30;52.40;;;;;;4836204;29;20037;-68
2023/06/15 09:20:25;;;;;;;2.15;0.90;;;28.40;52.70;;;;;;4835528;29;20033;-68
2023/06/15 09:22:51;;;;;;;5.72;1.85;;;28.60;52.90;;;;;;4846251;29;20041;-68
2023/06/15 09:25:19;;;;;;;2.60;1.27;;;28.80;52.00;;;;;;4835714;29;20033;-69
2023/06/15 09:27:53;;;;;;;2.80;1.30;;;28.90;51.80;;;;;;4839664;29;20041;-68
2023/06/15 09:30:20;;;;;;;3.75;1.45;;;29.10;51.70;;;;;;4835002;29;20069;-68
2023/06/15 09:32:46;;;;;;;3.03;1.15;;;29.10;51.70;;;;;;4834296;29;20044;-68
2023/06/15 09:35:13;;;;;;;4.68;1.10;;;29.20;50.60;;;;;;4828636;29;20063;-68
2023/06/15 09:37:39;;;;;;;3.08;1.23;;;29.20;50.30;;;;;;4834223;29;20053;-68
2023/06/15 09:40:07;;;;;;;4.65;1.40;;;29.20;50.60;;;;;;4842181;29;20048;-69
2023/06/15 09:42:35;;;;;;;3.75;1.17;;;29.40;50.80;;;;;;4846334;29;20429;-68
2023/06/15 09:45:05;;;;;;;2.97;1.25;;;29.50;50.80;;;;;;4818093;29;20649;-68
2023/06/15 09:47:32;;;;;;;2.15;1.10;;;29.70;50.60;;;;;;4834863;29;20044;-68
2023/06/15 09:49:59;;;;;;;2.90;1.15;;;29.90;50.50;;;;;;4836168;29;20475;-68
2023/06/15 09:52:25;;;;;;;2.33;1.38;;;30.10;50.10;;;;;;4835809;29;20033;-68
2023/06/15 09:54:53;;;;;;;3.85;1.48;;;30.30;50.00;;;;;;4827091;29;20048;-68
2023/06/15 09:57:20;;;;;;;4.95;1.48;;;30.30;48.30;;;;;;4836974;29;20037;-68
2023/06/15 09:59:46;;;;;;;3.53;1.20;;;29.90;48.40;;;;;;4844818;29;20033;-68
2023/06/15 10:02:16;;;;;;;3.10;1.42;;;29.80;49.10;;;;;;4827805;29;20048;-68
2023/06/15 10:04:45;;;;;;;7.28;1.30;;;30.10;49.10;;;;;;4831382;29;20045;-68
2023/06/15 10:07:13;;;;;;;2.90;1.20;;;30.00;48.60;;;;;;4835595;29;20045;-68
2023/06/15 10:09:46;;;;;;;3.33;1.10;;;29.70;48.80;;;;;;4835291;29;20041;-68
2023/06/15 10:12:16;;;;;;;1.88;1.10;;;29.50;49.40;;;;;;4834490;29;20400;-68
2023/06/15 10:15:15;;;;;;;4.72;1.40;;;29.50;49.80;;;;;;4827356;29;20041;-68
2023/06/15 10:17:46;;;;;;;3.95;1.20;;;29.30;49.30;;;;;;4856083;29;20037;-68
2023/06/15 10:20:17;;;;;;;3.20;1.50;;;29.10;49.60;;;;;;4828305;29;20041;-69
2023/06/15 10:22:59;;;;;;;3.67;1.42;;;29.10;49.90;;;;;;4842869;29;20041;-68
2023/06/15 10:25:27;;;;;;;2.97;1.00;;;29.40;49.20;;;;;;4832371;29;20037;-68
2023/06/15 10:27:54;;;;;;;2.72;1.38;;;29.70;48.80;;;;;;4838809;29;20045;-68
2023/06/15 10:31:17;;;;;;;2.53;1.42;;;29.80;48.30;;;;;;4821677;29;20405;-68
2023/06/15 10:33:54;;;;;;;4.68;1.20;;;29.70;48.80;;;;;;4776050;29;20080;-69
2023/06/15 10:36:25;;;;;;;3.30;1.27;;;30.20;49.20;;;;;;4784665;29;20119;-69
2023/06/15 10:39:20;;;;;;;2.92;1.13;;;30.80;49.00;;;;;;4829840;29;20057;-68
2023/06/15 10:41:46;;;;;;;2.90;1.27;;;31.40;47.20;;;;;;4843397;29;20539;-69
2023/06/15 10:44:16;;;;;;;3.03;1.65;;;31.50;47.00;;;;;;4825725;29;20488;-68
2023/06/15 10:46:42;;;;;;;3.55;1.08;;;31.30;46.50;;;;;;4831439;29;20037;-69
2023/06/15 10:49:10;;;;;;;4.60;1.35;;;30.90;46.50;;;;;;4835309;29;20705;-69
2023/06/15 10:51:41;;;;;;;13.50;8.40;;;30.60;46.80;;;;;;4820301;29;20618;-69
2023/06/15 10:54:23;;;;;;;3.90;2.33;;;30.40;47.40;;;;;;4829996;29;20061;-69
2023/06/15 10:56:51;;;;;;;2.00;1.20;;;30.10;47.10;;;;;;4827925;29;20057;-68
2023/06/15 10:59:54;;;;;;;5.55;1.42;;;29.90;47.50;;;;;;4842649;29;20043;-69
2023/06/15 11:02:31;;;;;;;2.28;1.20;;;30.40;47.20;;;;;;4816615;29;21372;-68
2023/06/15 11:05:08;;;;;;;1.98;1.20;;;31.20;46.60;;;;;;4825857;29;20433;-68
2023/06/15 11:07:36;;;;;;;3.38;1.20;;;32.00;46.30;;;;;;4827181;29;21918;-68
2023/06/15 11:10:12;;;;;;;2.83;1.48;;;32.70;45.40;;;;;;4829740;29;20488;-71
2023/06/15 11:12:43;;;;;;;3.08;1.20;;;33.30;45.30;;;;;;4833070;29;20029;-71
2023/06/15 11:15:13;;;;;;;3.58;1.10;;;33.80;44.30;;;;;;4837150;29;20412;-71
2023/06/15 11:17:58;;;;;;;3.40;1.40;;;34.30;44.10;;;;;;4812035;29;20044;-71
2023/06/15 11:21:02;;;;;;;4.00;1.23;;;34.80;43.90;;;;;;4836785;29;20035;-71
2023/06/15 11:23:33;;;;;;;3.13;1.20;;;35.30;43.50;;;;;;4832621;29;20468;-72
2023/06/15 11:26:01;;;;;;;2.25;0.85;;;35.40;41.90;;;;;;4830533;29;20602;-71
2023/06/15 11:28:33;;;;;;;4.53;1.30;;;35.00;41.50;;;;;;4835188;29;20271;-71
2023/06/15 11:31:00;;;;;;;4.03;1.80;;;34.70;41.90;;;;;;4833737;29;20029;-70
2023/06/15 11:33:29;;;;;;;4.60;1.15;;;34.30;42.00;;;;;;4836603;29;20045;-72
2023/06/15 11:35:56;;;;;;;1.92;1.20;;;34.60;42.10;;;;;;4840548;29;20033;-69
2023/06/15 11:38:26;;;;;;;2.58;0.98;;;34.70;41.70;;;;;;4821467;29;20052;-68
2023/06/15 11:40:59;;;;;;;2.00;0.88;;;34.30;41.40;;;;;;4834871;29;20041;-69
2023/06/15 11:43:31;;;;;;;1.65;0.90;;;34.00;41.60;;;;;;4816114;29;20636;-69
2023/06/15 11:45:57;;;;;;;2.38;1.02;;;33.60;41.70;;;;;;4832714;29;20033;-68
2023/06/15 11:48:25;;;;;;;3.17;1.23;;;33.00;41.80;;;;;;4833668;29;20499;-69
2023/06/15 11:50:52;;;;;;;2.25;1.20;;;32.60;42.00;;;;;;4838636;29;20051;-71
2023/06/15 11:53:19;;;;;;;3.30;1.00;;;32.80;41.30;;;;;;4842827;29;20476;-70
2023/06/15 11:55:46;;;;;;;3.65;1.50;;;33.40;41.10;;;;;;4839238;29;20053;-70
2023/06/15 11:58:12;;;;;;;3.05;1.23;;;34.30;40.30;;;;;;4838605;29;20707;-70
2023/06/15 12:00:40;;;;;;;3.10;1.30;;;35.20;39.50;;;;;;4833696;29;20037;-69
2023/06/15 12:03:12;;;;;;;5.10;1.17;;;35.80;39.50;;;;;;4818872;29;20424;-69
2023/06/15 12:05:39;;;;;;;4.30;1.65;;;36.50;39.30;;;;;;4827872;29;20033;-69
2023/06/15 12:08:06;;;;;;;1.60;0.90;;;37.10;39.10;;;;;;4821390;29;20029;-69
2023/06/15 12:10:39;;;;;;;6.72;1.52;;;37.10;38.60;;;;;;4843008;29;20044;-69
2023/06/15 12:13:12;;;;;;;3.53;1.00;;;36.40;38.60;;;;;;4843935;29;20064;-69
2023/06/15 12:15:46;;;;;;;2.20;0.88;;;35.40;39.50;;;;;;4833908;29;20029;-69
2023/06/15 12:18:12;;;;;;;3.53;1.17;;;35.20;39.70;;;;;;4834885;29;20436;-69
2023/06/15 12:20:39;;;;;;;3.60;1.13;;;34.60;39.70;;;;;;4833599;29;20040;-69
2023/06/15 12:23:06;;;;;;;1.30;1.05;;;34.40;39.80;;;;;;4837344;29;20037;-69
2023/06/15 12:25:47;;;;;;;4.82;1.02;;;35.00;40.00;;;;;;4830444;29;20037;-69
2023/06/15 12:28:18;;;;;;;3.90;1.10;;;36.20;39.40;;;;;;4836605;29;20045;-69
2023/06/15 12:30:47;;;;;;;1.73;0.88;;;37.20;38.40;;;;;;4843829;29;20033;-69
2023/06/15 12:33:36;;;;;;;2.38;0.95;;;37.90;37.50;;;;;;4839886;29;20029;-69
2023/06/15 12:36:08;;;;;;;3.13;1.00;;;37.40;37.60;;;;;;4833275;29;20026;-69
2023/06/15 12:38:34;;;;;;;3.83;2.47;;;36.40;37.40;;;;;;4832150;29;20408;-69
2023/06/15 12:41:00;;;;;;;3.08;2.40;;;35.50;37.70;;;;;;4834452;29;20041;-68
2023/06/15 12:43:26;;;;;;;2.65;1.90;;;34.60;38.30;;;;;;4829562;29;20056;-68
2023/06/15 12:45:54;;;;;;;2.45;1.10;;;33.80;39.00;;;;;;4832391;29;20048;-69
2023/06/15 12:48:22;;;;;;;2.25;0.90;;;33.10;39.80;;;;;;4844963;29;20037;-68
2023/06/15 12:50:50;;;;;;;2.22;1.05;;;32.50;40.40;;;;;;4842685;29;20681;-69
2023/06/15 12:53:20;;;;;;;2.65;1.23;;;32.60;40.90;;;;;;4832520;29;20594;-69
2023/06/15 12:55:47;;;;;;;3.53;1.00;;;33.70;40.40;;;;;;4832862;29;20361;-68